createdAt,value
2023-05-05T00:00:12.169Z,63.39
2023-05-05T00:02:42.187Z,63.60
2023-05-05T00:05:11.356Z,63.90
2023-05-05T00:07:40.172Z,63.63
2023-05-05T00:10:11.684Z,64.27
2023-05-05T00:12:40.394Z,64.74
2023-05-05T00:15:10.372Z,63.95
2023-05-05T00:17:39.125Z,62.84
2023-05-05T00:20:10.405Z,62.59
2023-05-05T00:22:39.168Z,62.60
2023-05-05T00:25:10.898Z,62.41
2023-05-05T00:27:40.850Z,62.83
2023-05-05T00:30:10.739Z,63.87
2023-05-05T00:32:39.626Z,63.66
2023-05-05T00:35:09.696Z,63.15
2023-05-05T00:37:38.499Z,63.22
2023-05-05T00:40:11.148Z,63.09
2023-05-05T00:42:41.784Z,63.84
2023-05-05T00:45:12.305Z,64.43
2023-05-05T00:47:44.015Z,65.48
2023-05-05T00:50:19.440Z,65.36
2023-05-05T00:52:48.279Z,64.98
2023-05-05T00:55:18.979Z,65.79
2023-05-05T00:57:48.745Z,66.44
2023-05-05T01:00:18.050Z,66.41
2023-05-05T01:02:46.993Z,65.12
2023-05-05T01:05:17.959Z,64.10
2023-05-05T01:08:20.347Z,63.88
2023-05-05T01:11:02.151Z,63.83
2023-05-05T01:13:44.187Z,63.81
2023-05-05T01:16:20.900Z,63.92
2023-05-05T01:19:23.768Z,63.55
2023-05-05T01:22:01.486Z,63.85
2023-05-05T01:24:58.156Z,63.66
2023-05-05T01:27:51.256Z,63.88
2023-05-05T01:30:51.313Z,64.70
2023-05-05T01:33:28.811Z,65.53
2023-05-05T01:36:05.512Z,65.45
2023-05-05T01:38:41.879Z,66.42
2023-05-05T01:41:18.365Z,65.96
2023-05-05T01:43:51.833Z,65.25
2023-05-05T01:46:24.786Z,64.90
2023-05-05T01:48:58.378Z,65.23
2023-05-05T01:51:29.174Z,64.81
2023-05-05T01:54:02.774Z,64.70
2023-05-05T01:56:33.900Z,65.12
2023-05-05T01:59:06.763Z,65.76
2023-05-05T02:01:40.977Z,65.85
2023-05-05T02:04:14.542Z,65.56
2023-05-05T02:06:47.625Z,65.13
2023-05-05T02:09:18.311Z,65.43
2023-05-05T02:11:47.250Z,65.00
2023-05-05T02:14:20.067Z,65.26
2023-05-05T02:16:49.953Z,65.41
2023-05-05T02:19:25.610Z,66.01
2023-05-05T02:21:54.438Z,65.60
2023-05-05T02:24:23.278Z,65.78
2023-05-05T02:26:56.112Z,66.92
2023-05-05T02:29:34.002Z,67.31
2023-05-05T02:32:10.608Z,67.92
2023-05-05T02:34:44.054Z,66.64
2023-05-05T02:37:24.679Z,66.29
2023-05-05T02:40:04.704Z,66.63
2023-05-05T02:42:41.199Z,67.43
2023-05-05T02:45:18.543Z,67.03
2023-05-05T02:47:50.634Z,67.54
2023-05-05T02:50:20.865Z,67.34
2023-05-05T02:52:58.675Z,66.82
2023-05-05T02:55:34.678Z,67.50
2023-05-05T02:58:08.828Z,67.25
2023-05-05T03:00:54.649Z,66.90
2023-05-05T03:03:39.930Z,66.54
2023-05-05T03:06:19.643Z,66.77
2023-05-05T03:08:57.620Z,66.88
2023-05-05T03:11:37.051Z,66.76
2023-05-05T03:14:13.153Z,67.63
2023-05-05T03:16:45.850Z,67.59
2023-05-05T03:19:18.692Z,67.86
2023-05-05T03:21:52.524Z,67.50
2023-05-05T03:24:22.781Z,67.07
2023-05-05T03:26:59.893Z,66.96
2023-05-05T03:29:34.810Z,67.00
2023-05-05T03:32:06.018Z,67.01
2023-05-05T03:34:37.439Z,67.02
2023-05-05T03:37:08.779Z,67.06
2023-05-05T03:39:38.830Z,66.50
2023-05-05T03:42:08.894Z,66.37
2023-05-05T03:44:38.199Z,66.59
2023-05-05T03:47:07.769Z,66.75
2023-05-05T03:49:39.089Z,66.73
2023-05-05T03:52:09.686Z,66.95
2023-05-05T03:54:40.784Z,66.62
2023-05-05T03:57:09.503Z,67.24
2023-05-05T03:59:38.423Z,66.97
2023-05-05T04:02:07.680Z,67.56
2023-05-05T04:04:36.954Z,68.47
2023-05-05T04:07:06.450Z,67.94
2023-05-05T04:09:37.381Z,68.77
2023-05-05T04:12:07.699Z,68.40
2023-05-05T04:14:37.024Z,68.08
2023-05-05T04:17:08.262Z,68.21
2023-05-05T04:19:37.621Z,68.08
2023-05-05T04:22:07.673Z,68.44
2023-05-05T04:24:38.141Z,69.54
2023-05-05T04:27:07.406Z,68.97
2023-05-05T04:29:36.947Z,70.64
2023-05-05T04:32:06.730Z,70.14
2023-05-05T04:34:35.779Z,70.90
2023-05-05T04:37:04.821Z,70.16
2023-05-05T04:39:33.958Z,69.91
2023-05-05T04:42:05.013Z,70.18
2023-05-05T04:44:34.726Z,69.81
2023-05-05T04:47:04.587Z,69.64
2023-05-05T04:49:34.158Z,70.07
2023-05-05T04:52:03.551Z,69.87
2023-05-05T04:54:32.450Z,69.36
2023-05-05T04:57:41.917Z,69.41
2023-05-05T05:01:13.930Z,69.56
2023-05-05T05:03:42.776Z,69.75
2023-05-05T05:06:11.541Z,69.22
2023-05-05T05:08:40.287Z,69.25
2023-05-05T05:11:09.155Z,69.39
2023-05-05T05:13:37.864Z,69.52
2023-05-05T05:16:09.730Z,69.58
2023-05-05T05:18:38.488Z,69.39
2023-05-05T05:21:07.285Z,70.00
2023-05-05T05:23:36.199Z,69.82
2023-05-05T05:26:05.406Z,69.85
2023-05-05T05:28:34.896Z,69.87
2023-05-05T05:31:04.906Z,70.14
2023-05-05T05:33:35.624Z,70.56
2023-05-05T05:36:04.617Z,70.33
2023-05-05T05:38:33.420Z,70.25
2023-05-05T05:41:08.428Z,70.13
2023-05-05T05:43:39.276Z,70.29
2023-05-05T05:46:09.293Z,70.43
2023-05-05T05:48:41.547Z,70.03
2023-05-05T05:51:10.414Z,70.56
2023-05-05T05:53:40.070Z,70.33
2023-05-05T05:56:11.196Z,70.30
2023-05-05T05:58:40.643Z,70.17
2023-05-05T06:01:09.786Z,70.68
2023-05-05T06:03:38.652Z,71.00
2023-05-05T06:06:09.867Z,70.91
2023-05-05T06:08:38.870Z,71.38
2023-05-05T06:11:09.084Z,71.49
2023-05-05T06:13:37.943Z,71.43
2023-05-05T06:16:08.873Z,70.91
2023-05-05T06:18:39.111Z,70.65
2023-05-05T06:21:09.265Z,70.90
2023-05-05T06:23:38.089Z,70.85
2023-05-05T06:26:09.261Z,70.33
2023-05-05T06:28:37.969Z,70.50
2023-05-05T06:31:06.832Z,70.33
2023-05-05T06:33:35.562Z,70.26
2023-05-05T06:36:04.448Z,70.08
2023-05-05T06:38:34.509Z,70.17
2023-05-05T06:41:03.435Z,69.79
2023-05-05T06:43:32.348Z,69.14
2023-05-05T06:46:02.981Z,69.25
2023-05-05T06:48:31.684Z,67.99
2023-05-05T06:51:00.361Z,66.86
2023-05-05T06:53:29.060Z,66.25
2023-05-05T06:55:59.096Z,66.18
2023-05-05T06:58:27.797Z,65.17
2023-05-05T07:00:56.530Z,65.79
2023-05-05T07:03:25.336Z,64.08
2023-05-05T07:05:55.065Z,62.97
2023-05-05T07:08:23.803Z,62.55
2023-05-05T07:10:52.512Z,61.84
2023-05-05T07:13:22.626Z,62.33
2023-05-05T07:15:51.529Z,61.13
2023-05-05T07:18:20.601Z,61.38
2023-05-05T07:20:49.934Z,60.61
2023-05-05T07:23:18.611Z,59.55
2023-05-05T07:25:47.370Z,59.89
2023-05-05T07:28:16.451Z,59.52
2023-05-05T07:30:46.532Z,58.69
2023-05-05T07:33:15.927Z,57.46
2023-05-05T07:35:44.580Z,57.12
2023-05-05T07:38:13.362Z,56.11
2023-05-05T07:40:42.011Z,56.24
2023-05-05T07:43:10.773Z,55.87
2023-05-05T07:45:39.443Z,55.17
2023-05-05T07:48:09.636Z,53.92
2023-05-05T07:50:38.422Z,52.40
2023-05-05T07:53:14.405Z,53.65
2023-05-05T07:55:43.691Z,52.16
2023-05-05T07:58:12.380Z,51.46
2023-05-05T08:00:41.494Z,50.97
2023-05-05T08:03:12.289Z,50.53
2023-05-05T08:05:41.413Z,50.71
2023-05-05T08:08:10.275Z,50.83
2023-05-05T08:10:39.027Z,50.65
2023-05-05T08:13:07.782Z,50.49
2023-05-05T08:15:36.501Z,51.17
2023-05-05T08:18:05.385Z,49.81
2023-05-05T08:20:35.559Z,50.25
2023-05-05T08:23:04.377Z,52.18
2023-05-05T08:25:33.017Z,50.90
2023-05-05T08:28:01.772Z,50.66
2023-05-05T08:30:31.097Z,47.83
2023-05-05T08:33:00.655Z,50.12
2023-05-05T08:35:29.381Z,48.77
2023-05-05T08:37:59.475Z,49.02
2023-05-05T08:40:34.971Z,50.74
2023-05-05T08:43:04.451Z,51.14
2023-05-05T08:45:34.009Z,49.44
2023-05-05T08:48:05.494Z,49.27
2023-05-05T08:50:34.854Z,49.32
2023-05-05T08:53:16.930Z,47.49
2023-05-05T08:55:52.712Z,46.24
2023-05-05T08:58:24.087Z,47.42
2023-05-05T09:00:55.332Z,47.29
2023-05-05T09:03:25.280Z,45.89
2023-05-05T09:05:54.763Z,45.33
2023-05-05T09:08:26.024Z,46.47
2023-05-05T09:10:56.373Z,45.87
2023-05-05T09:13:25.260Z,44.15
2023-05-05T09:15:53.936Z,45.60
2023-05-05T09:18:22.641Z,41.41
2023-05-05T09:20:51.527Z,42.02
2023-05-05T09:23:21.992Z,40.93
2023-05-05T09:26:06.084Z,41.81
2023-05-05T09:28:35.877Z,38.80
2023-05-05T09:31:16.289Z,36.91
2023-05-05T09:33:45.760Z,38.19
2023-05-05T09:36:14.499Z,37.62
2023-05-05T09:38:43.214Z,37.83
2023-05-05T09:41:13.313Z,38.13
2023-05-05T09:43:53.033Z,38.31
2023-05-05T09:46:21.906Z,38.01
2023-05-05T09:48:50.599Z,36.93
2023-05-05T09:51:31.929Z,37.31
2023-05-05T09:54:00.758Z,38.06
2023-05-05T09:56:40.994Z,35.99
2023-05-05T09:59:10.482Z,35.15
2023-05-05T10:01:43.341Z,34.16
2023-05-05T10:04:25.968Z,34.23
2023-05-05T10:06:55.741Z,33.71
2023-05-05T10:09:24.778Z,33.52
2023-05-05T10:11:59.052Z,34.46
2023-05-05T10:14:29.002Z,31.77
2023-05-05T10:16:58.134Z,31.77
2023-05-05T10:19:29.055Z,32.97
2023-05-05T10:22:04.908Z,32.37
2023-05-05T10:24:41.042Z,31.72
2023-05-05T10:27:20.945Z,29.93
2023-05-05T10:29:56.218Z,31.38
2023-05-05T10:35:08.860Z,31.50
2023-05-05T10:37:39.637Z,31.28
2023-05-05T10:40:11.220Z,28.92
2023-05-05T10:42:42.000Z,32.01
2023-05-05T10:45:11.543Z,33.37
2023-05-05T10:47:41.567Z,30.36
2023-05-05T10:50:22.557Z,30.58
2023-05-05T10:53:09.259Z,29.22
2023-05-05T10:55:49.814Z,29.86
2023-05-05T11:01:12.315Z,28.46
2023-05-05T11:03:41.098Z,28.59
2023-05-05T11:06:14.013Z,29.36
2023-05-05T11:08:45.684Z,26.75
2023-05-05T11:11:14.901Z,27.17
2023-05-05T11:13:43.588Z,28.45
2023-05-05T11:16:47.898Z,25.95
2023-05-05T11:19:53.501Z,25.39
2023-05-05T11:22:22.214Z,26.89
2023-05-05T11:24:50.879Z,27.26
2023-05-05T11:27:19.611Z,26.39
2023-05-05T11:30:09.376Z,25.47
2023-05-05T11:32:39.893Z,25.49
2023-05-05T11:35:09.436Z,25.58
2023-05-05T11:37:39.657Z,27.59
2023-05-05T11:40:22.166Z,25.26
2023-05-05T11:42:51.148Z,25.27
2023-05-05T11:45:24.597Z,24.20
2023-05-05T11:48:27.150Z,24.11
2023-05-05T11:50:56.285Z,24.15
2023-05-05T11:53:25.150Z,25.21
2023-05-05T11:56:08.621Z,23.76
2023-05-05T11:58:37.429Z,25.33
2023-05-05T12:01:09.806Z,24.01
2023-05-05T12:03:40.736Z,24.73
2023-05-05T12:06:10.570Z,25.72
2023-05-05T12:08:40.387Z,24.96
2023-05-05T12:11:11.686Z,24.24
2023-05-05T12:13:41.715Z,25.83
2023-05-05T12:16:11.162Z,25.51
2023-05-05T12:18:42.891Z,26.40
2023-05-05T12:21:18.763Z,23.86
2023-05-05T12:23:48.106Z,22.58
2023-05-05T12:26:34.720Z,23.81
2023-05-05T12:29:03.728Z,24.38
2023-05-05T12:31:37.095Z,23.12
2023-05-05T12:34:09.226Z,25.17
2023-05-05T12:36:38.959Z,24.50
2023-05-05T12:39:07.686Z,23.94
2023-05-05T12:41:36.754Z,23.47
2023-05-05T12:44:05.730Z,23.82
2023-05-05T12:46:46.725Z,23.19
2023-05-05T12:49:17.791Z,22.51
2023-05-05T12:51:56.205Z,23.42
2023-05-05T12:54:29.553Z,24.11
2023-05-05T12:56:58.858Z,22.26
2023-05-05T12:59:31.834Z,23.19
2023-05-05T13:02:02.451Z,23.46
2023-05-05T13:04:32.762Z,25.20
2023-05-05T13:07:13.181Z,22.50
2023-05-05T13:09:42.461Z,22.38
2023-05-05T13:12:12.533Z,22.00
2023-05-05T13:14:41.921Z,23.34
2023-05-05T13:17:15.301Z,25.04
2023-05-05T13:19:47.161Z,23.84
2023-05-05T13:22:16.253Z,25.67
2023-05-05T13:24:52.431Z,25.10
2023-05-05T13:27:22.848Z,25.84
2023-05-05T13:29:52.114Z,26.48
2023-05-05T13:32:21.069Z,26.72
2023-05-05T13:34:51.641Z,26.92
2023-05-05T13:37:22.177Z,27.87
2023-05-05T13:39:52.027Z,28.66
2023-05-05T13:42:21.115Z,27.51
2023-05-05T13:44:53.764Z,28.10
2023-05-05T13:47:23.398Z,28.38
2023-05-05T13:49:54.841Z,28.35
2023-05-05T13:52:23.642Z,29.25
2023-05-05T13:54:52.886Z,29.18
2023-05-05T13:57:21.630Z,27.72
2023-05-05T13:59:50.698Z,27.66
2023-05-05T14:02:19.353Z,26.34
2023-05-05T14:04:48.008Z,26.45
2023-05-05T14:07:18.195Z,26.80
2023-05-05T14:09:47.028Z,25.59
2023-05-05T14:12:15.638Z,24.80
2023-05-05T14:14:44.378Z,25.42
2023-05-05T14:17:13.395Z,25.85
2023-05-05T14:19:43.370Z,25.86
2023-05-05T14:22:12.400Z,25.98
2023-05-05T14:24:42.580Z,25.67
2023-05-05T14:27:11.303Z,25.46
2023-05-05T14:29:40.213Z,24.92
2023-05-05T14:32:10.866Z,26.01
2023-05-05T14:34:39.807Z,25.32
2023-05-05T14:37:08.985Z,25.39
2023-05-05T14:39:37.698Z,26.44
2023-05-05T14:42:08.176Z,26.57
2023-05-05T14:44:38.925Z,26.39
2023-05-05T14:47:09.115Z,25.47
2023-05-05T14:49:38.213Z,26.35
2023-05-05T14:52:35.179Z,27.01
2023-05-05T14:55:04.444Z,27.19
2023-05-05T14:57:34.613Z,27.25
2023-05-05T15:00:04.893Z,26.61
2023-05-05T15:02:34.039Z,26.09
2023-05-05T15:05:02.971Z,25.28
2023-05-05T15:07:31.756Z,25.59
2023-05-05T15:10:00.520Z,24.46
2023-05-05T15:12:29.315Z,24.40
2023-05-05T15:14:59.385Z,25.00
2023-05-05T15:17:28.752Z,25.18
2023-05-05T15:19:57.535Z,25.99
2023-05-05T15:22:26.575Z,26.38
2023-05-05T15:24:55.501Z,26.75
2023-05-05T15:27:24.288Z,26.15
2023-05-05T15:29:53.130Z,26.47
2023-05-05T15:32:23.681Z,27.87
2023-05-05T15:34:52.536Z,27.18
2023-05-05T15:37:21.339Z,26.82
2023-05-05T15:39:50.238Z,27.35
2023-05-05T15:42:19.075Z,27.72
2023-05-05T15:44:47.845Z,28.71
2023-05-05T15:47:16.626Z,27.48
2023-05-05T15:49:47.330Z,27.68
2023-05-05T15:52:15.995Z,27.89
2023-05-05T15:54:44.860Z,28.31
2023-05-05T15:57:13.524Z,27.87
2023-05-05T15:59:42.454Z,28.32
2023-05-05T16:02:11.813Z,29.18
2023-05-05T16:04:40.633Z,29.03
2023-05-05T16:07:11.390Z,28.60
2023-05-05T16:09:44.563Z,28.45
2023-05-05T16:12:13.814Z,28.13
2023-05-05T16:14:42.782Z,29.17
2023-05-05T16:17:11.803Z,28.88
2023-05-05T16:19:40.714Z,28.74
2023-05-05T16:22:10.944Z,29.12
2023-05-05T16:24:42.492Z,28.38
2023-05-05T16:27:13.795Z,28.92
2023-05-05T16:29:42.866Z,29.30
2023-05-05T16:32:11.859Z,29.28
2023-05-05T16:34:40.997Z,30.07
2023-05-05T16:37:11.322Z,29.55
2023-05-05T16:39:41.582Z,30.88
2023-05-05T16:42:16.688Z,31.78
2023-05-05T16:44:45.352Z,33.29
2023-05-05T16:47:14.205Z,31.76
2023-05-05T16:49:42.859Z,31.47
2023-05-05T16:52:13.028Z,31.00
2023-05-05T16:54:41.676Z,32.32
2023-05-05T16:57:10.461Z,31.86
2023-05-05T16:59:41.857Z,31.73
2023-05-05T17:02:10.736Z,32.86
2023-05-05T17:04:39.437Z,33.07
2023-05-05T17:07:08.124Z,33.54
2023-05-05T17:09:38.320Z,33.35
2023-05-05T17:12:07.858Z,33.94
2023-05-05T17:14:36.455Z,35.26
2023-05-05T17:17:05.159Z,35.60
2023-05-05T17:19:34.041Z,36.62
2023-05-05T17:22:02.771Z,37.77
2023-05-05T17:24:31.697Z,37.56
2023-05-05T17:27:02.132Z,37.13
2023-05-05T17:29:31.311Z,38.06
2023-05-05T17:32:00.917Z,38.30
2023-05-05T17:34:29.938Z,39.32
2023-05-05T17:36:58.624Z,38.69
2023-05-05T17:39:27.735Z,39.18
2023-05-05T17:41:56.444Z,38.88
2023-05-05T17:44:26.695Z,40.09
2023-05-05T17:46:55.560Z,40.09
2023-05-05T17:49:25.485Z,41.04
2023-05-05T17:51:54.430Z,40.62
2023-05-05T17:54:23.214Z,40.94
2023-05-05T17:56:51.891Z,41.36
2023-05-05T17:59:20.582Z,40.59
2023-05-05T18:01:50.722Z,40.81
2023-05-05T18:04:19.589Z,40.40
2023-05-05T18:06:48.377Z,40.92
2023-05-05T18:09:20.783Z,41.94
2023-05-05T18:11:50.037Z,41.50
2023-05-05T18:14:22.541Z,41.20
2023-05-05T18:16:53.473Z,42.80
2023-05-05T18:19:24.699Z,42.80
2023-05-05T18:21:55.534Z,43.26
2023-05-05T18:24:25.996Z,43.66
2023-05-05T18:26:55.584Z,43.94
2023-05-05T18:29:24.644Z,43.26
2023-05-05T18:31:55.238Z,42.97
2023-05-05T18:34:24.306Z,44.42
2023-05-05T18:36:54.494Z,44.79
2023-05-05T18:39:23.326Z,44.09
2023-05-05T18:41:53.070Z,43.37
2023-05-05T18:44:21.674Z,44.86
2023-05-05T18:46:50.349Z,45.25
2023-05-05T18:49:20.632Z,46.42
2023-05-05T18:51:49.479Z,46.81
2023-05-05T18:54:18.194Z,47.81
2023-05-05T18:56:46.974Z,46.39
2023-05-05T18:59:15.723Z,47.67
2023-05-05T19:01:44.837Z,48.21
2023-05-05T19:04:26.666Z,49.02
2023-05-05T19:07:00.342Z,48.38
2023-05-05T19:09:29.271Z,47.57
2023-05-05T19:11:58.052Z,48.79
2023-05-05T19:14:26.842Z,48.22
2023-05-05T19:16:56.263Z,49.01
2023-05-05T19:19:25.083Z,50.49
2023-05-05T19:21:53.826Z,50.78
2023-05-05T19:24:23.920Z,50.61
2023-05-05T19:26:52.566Z,50.03
2023-05-05T19:29:21.305Z,49.79
2023-05-05T19:31:50.025Z,50.08
2023-05-05T19:34:18.794Z,50.64
2023-05-05T19:36:47.515Z,49.82
2023-05-05T19:39:16.894Z,49.76
2023-05-05T19:41:47.096Z,50.66
2023-05-05T19:44:16.493Z,51.26
2023-05-05T19:46:45.217Z,51.67
2023-05-05T19:49:13.856Z,52.71
2023-05-05T19:51:43.838Z,53.13
2023-05-05T19:54:12.528Z,53.93
2023-05-05T19:56:41.204Z,54.33
2023-05-05T19:59:11.323Z,54.52
2023-05-05T20:01:40.244Z,53.39
2023-05-05T20:04:09.109Z,53.93
2023-05-05T20:06:37.923Z,53.77
2023-05-05T20:09:07.044Z,53.38
2023-05-05T20:11:36.337Z,53.37
2023-05-05T20:14:05.049Z,55.20
2023-05-05T20:16:35.784Z,55.67
2023-05-05T20:19:05.406Z,56.37
2023-05-05T20:21:36.078Z,59.01
2023-05-05T20:24:04.978Z,58.26
2023-05-05T20:26:33.779Z,58.11
2023-05-05T20:29:02.553Z,58.49
2023-05-05T20:31:31.357Z,58.88
2023-05-05T20:34:01.615Z,61.99
2023-05-05T20:36:30.342Z,61.99
2023-05-05T20:38:59.030Z,61.21
2023-05-05T20:41:27.710Z,60.13
2023-05-05T20:43:56.442Z,59.71
2023-05-05T20:46:25.149Z,59.76
2023-05-05T20:48:53.846Z,60.35
2023-05-05T20:51:23.999Z,59.71
2023-05-05T20:53:52.698Z,60.02
2023-05-05T20:56:21.391Z,59.63
2023-05-05T20:58:50.231Z,60.05
2023-05-05T21:01:18.979Z,60.15
2023-05-05T21:03:47.758Z,59.72
2023-05-05T21:06:16.427Z,60.27
2023-05-05T21:08:47.267Z,60.30
2023-05-05T21:11:15.927Z,61.04
2023-05-05T21:13:44.655Z,61.00
2023-05-05T21:16:13.526Z,61.31
2023-05-05T21:18:46.646Z,61.09
2023-05-05T21:21:15.461Z,61.29
2023-05-05T21:23:47.968Z,60.53
2023-05-05T21:26:16.925Z,61.59
2023-05-05T21:28:45.596Z,61.57
2023-05-05T21:31:21.836Z,61.70
2023-05-05T21:33:51.223Z,60.69
2023-05-05T21:36:20.995Z,61.00
2023-05-05T21:38:55.354Z,61.27
2023-05-05T21:41:25.398Z,61.29
2023-05-05T21:43:54.158Z,62.01
2023-05-05T21:46:22.889Z,62.11
2023-05-05T21:48:51.947Z,61.88
2023-05-05T21:51:22.654Z,61.22
2023-05-05T21:53:52.809Z,60.02
2023-05-05T21:56:21.450Z,61.01
2023-05-05T21:58:50.154Z,61.47
2023-05-05T22:01:19.038Z,61.49
2023-05-05T22:03:48.395Z,62.31
2023-05-05T22:06:18.482Z,62.75
2023-05-05T22:08:47.761Z,63.77
2023-05-05T22:11:19.469Z,64.06
2023-05-05T22:13:48.282Z,64.67
2023-05-05T22:16:18.402Z,64.58
2023-05-05T22:18:47.346Z,64.00
2023-05-05T22:21:15.987Z,64.03
2023-05-05T22:23:44.669Z,64.96
2023-05-05T22:26:13.784Z,66.43
2023-05-05T22:28:43.905Z,66.97
2023-05-05T22:31:12.794Z,67.88
2023-05-05T22:33:41.481Z,68.64
2023-05-05T22:36:11.612Z,69.02
2023-05-05T22:38:40.336Z,71.47
2023-05-05T22:41:09.033Z,70.90
2023-05-05T22:43:37.794Z,70.70
2023-05-05T22:46:08.011Z,72.92
2023-05-05T22:48:36.989Z,72.46
2023-05-05T22:51:05.811Z,73.90
2023-05-05T22:53:34.536Z,74.39
2023-05-05T22:56:03.248Z,75.27
2023-05-05T22:58:31.908Z,77.14
2023-05-05T23:01:00.592Z,79.08
2023-05-05T23:03:30.719Z,81.34
2023-05-05T23:05:59.330Z,83.00
2023-05-05T23:08:28.091Z,83.40
2023-05-05T23:10:57.261Z,80.95
2023-05-05T23:13:25.970Z,81.65
2023-05-05T23:15:54.720Z,81.67
2023-05-05T23:18:23.385Z,82.29
2023-05-05T23:20:53.379Z,83.45
2023-05-05T23:23:22.107Z,83.51
2023-05-05T23:25:51.411Z,84.39
2023-05-05T23:28:21.076Z,84.61
2023-05-05T23:30:49.879Z,83.81
2023-05-05T23:33:18.572Z,83.28
2023-05-05T23:35:47.957Z,83.63
2023-05-05T23:38:18.060Z,85.00
2023-05-05T23:40:46.726Z,83.65
2023-05-05T23:43:15.537Z,84.53
2023-05-05T23:45:44.226Z,85.97
2023-05-05T23:48:13.776Z,86.47
2023-05-05T23:50:42.416Z,85.67
2023-05-05T23:53:11.347Z,86.41
2023-05-05T23:55:41.503Z,86.19
2023-05-05T23:58:10.135Z,86.24
